createdAt,value
2022-10-19T00:00:00.285Z,11.6
2022-10-19T00:01:02.351Z,11.6
2022-10-19T00:02:00.303Z,11.6
2022-10-19T00:03:00.239Z,11.6
2022-10-19T00:04:02.413Z,11.6
2022-10-19T00:05:00.243Z,11.6
2022-10-19T00:06:10.551Z,11.6
2022-10-19T00:07:00.218Z,11.6
2022-10-19T00:08:00.254Z,11.6
2022-10-19T00:09:03.894Z,11.5
2022-10-19T00:10:00.279Z,11.5
2022-10-19T00:11:00.879Z,11.5
2022-10-19T00:12:00.263Z,11.5
2022-10-19T00:13:00.573Z,11.5
2022-10-19T00:14:01.045Z,11.5
2022-10-19T00:15:00.282Z,11.5
2022-10-19T00:16:00.465Z,11.5
2022-10-19T00:17:00.282Z,11.4
2022-10-19T00:18:00.215Z,11.4
2022-10-19T00:19:02.263Z,11.4
2022-10-19T00:20:00.234Z,11.4
2022-10-19T00:21:02.757Z,11.3
2022-10-19T00:22:00.236Z,11.3
2022-10-19T00:23:00.308Z,11.3
2022-10-19T00:24:00.518Z,11.3
2022-10-19T00:25:00.396Z,11.3
2022-10-19T00:26:00.496Z,11.2
2022-10-19T00:27:00.227Z,11.2
2022-10-19T00:28:00.222Z,11.2
2022-10-19T00:29:00.501Z,11.2
2022-10-19T00:30:00.324Z,11.2
2022-10-19T00:31:04.276Z,11.2
2022-10-19T00:32:00.219Z,11.2
2022-10-19T00:33:00.215Z,11.1
2022-10-19T00:34:00.292Z,11.1
2022-10-19T00:35:00.304Z,11.1
2022-10-19T00:36:01.546Z,11.0
2022-10-19T00:37:00.243Z,11.0
2022-10-19T00:38:00.218Z,10.9
2022-10-19T00:39:02.204Z,10.9
2022-10-19T00:40:00.282Z,10.9
2022-10-19T00:41:01.361Z,10.9
2022-10-19T00:42:00.377Z,10.9
2022-10-19T00:43:00.230Z,10.9
2022-10-19T00:44:06.086Z,10.9
2022-10-19T00:45:05.033Z,10.9
2022-10-19T00:46:00.218Z,10.8
2022-10-19T00:47:04.209Z,10.8
2022-10-19T00:48:00.284Z,10.8
2022-10-19T00:49:07.091Z,10.8
2022-10-19T00:50:00.276Z,10.7
2022-10-19T00:51:00.586Z,10.7
2022-10-19T00:52:05.091Z,10.7
2022-10-19T00:53:00.352Z,10.7
2022-10-19T00:54:04.677Z,10.7
2022-10-19T00:55:01.421Z,10.7
2022-10-19T00:56:04.817Z,10.7
2022-10-19T00:57:00.347Z,10.7
2022-10-19T00:58:01.934Z,10.6
2022-10-19T00:59:03.671Z,10.6
2022-10-19T01:00:04.353Z,10.6
2022-10-19T01:01:03.561Z,10.6
2022-10-19T01:02:02.841Z,10.6
2022-10-19T01:03:01.701Z,10.6
2022-10-19T01:04:01.880Z,10.6
2022-10-19T01:05:00.632Z,10.6
2022-10-19T01:06:00.610Z,10.5
2022-10-19T01:07:03.176Z,10.5
2022-10-19T01:08:00.589Z,10.5
2022-10-19T01:09:00.315Z,10.5
2022-10-19T01:10:01.932Z,10.5
2022-10-19T01:11:13.442Z,10.6
2022-10-19T01:12:09.797Z,10.5
2022-10-19T01:13:20.127Z,10.5
2022-10-19T01:14:10.191Z,10.5
2022-10-19T01:15:19.595Z,10.5
2022-10-19T01:16:15.317Z,10.5
2022-10-19T01:17:20.127Z,10.4
2022-10-19T01:18:10.155Z,10.4
2022-10-19T01:19:20.149Z,10.5
2022-10-19T01:20:10.163Z,10.5
2022-10-19T01:21:13.411Z,10.4
2022-10-19T01:22:20.131Z,10.4
2022-10-19T01:23:20.121Z,10.4
2022-10-19T01:24:11.189Z,10.4
2022-10-19T01:25:20.155Z,10.4
2022-10-19T01:26:18.637Z,10.4
2022-10-19T01:27:15.116Z,10.4
2022-10-19T01:28:13.876Z,10.4
2022-10-19T01:29:13.473Z,10.3
2022-10-19T01:30:12.056Z,10.3
2022-10-19T01:31:08.295Z,10.3
2022-10-19T01:32:08.441Z,10.3
2022-10-19T01:33:10.619Z,10.3
2022-10-19T01:34:07.127Z,10.3
2022-10-19T01:35:20.133Z,10.3
2022-10-19T01:36:17.766Z,10.3
2022-10-19T01:37:11.182Z,10.3
2022-10-19T01:38:12.174Z,10.3
2022-10-19T01:39:08.402Z,10.3
2022-10-19T01:40:08.181Z,10.2
2022-10-19T01:41:20.145Z,10.2
2022-10-19T01:42:13.265Z,10.2
2022-10-19T01:43:13.989Z,10.3
2022-10-19T01:44:12.827Z,10.4
2022-10-19T01:45:03.929Z,10.4
2022-10-19T01:46:07.989Z,10.4
2022-10-19T01:47:08.949Z,10.4
2022-10-19T01:48:04.393Z,10.4
2022-10-19T01:49:07.703Z,10.4
2022-10-19T01:50:08.940Z,10.4
2022-10-19T01:51:06.462Z,10.4
2022-10-19T01:52:04.186Z,10.5
2022-10-19T01:53:04.586Z,10.5
2022-10-19T01:54:06.044Z,10.6
2022-10-19T01:55:02.226Z,10.6
2022-10-19T01:56:03.500Z,10.6
2022-10-19T01:57:03.296Z,10.7
2022-10-19T01:58:08.371Z,10.7
2022-10-19T01:59:03.766Z,10.7
2022-10-19T02:00:02.355Z,10.7
2022-10-19T02:01:04.393Z,10.8
2022-10-19T02:02:02.487Z,10.8
2022-10-19T02:03:02.896Z,10.8
2022-10-19T02:04:02.061Z,10.8
2022-10-19T02:05:02.568Z,10.8
2022-10-19T02:06:03.862Z,10.8
2022-10-19T02:07:01.911Z,10.8
2022-10-19T02:08:05.266Z,10.8
2022-10-19T02:09:00.343Z,10.8
2022-10-19T02:10:00.398Z,10.8
2022-10-19T02:11:00.794Z,10.8
2022-10-19T02:12:04.295Z,10.8
2022-10-19T02:13:01.525Z,10.8
2022-10-19T02:14:05.702Z,10.8
2022-10-19T02:15:08.582Z,10.8
2022-10-19T02:16:04.344Z,10.8
2022-10-19T02:17:07.148Z,10.8
2022-10-19T02:18:02.362Z,10.8
2022-10-19T02:19:01.946Z,10.8
2022-10-19T02:20:00.911Z,10.8
2022-10-19T02:21:03.453Z,10.8
2022-10-19T02:22:00.446Z,10.8
2022-10-19T02:23:02.592Z,10.8
2022-10-19T02:24:00.238Z,10.8
2022-10-19T02:25:00.365Z,10.8
2022-10-19T02:26:00.735Z,10.8
2022-10-19T02:27:01.536Z,10.9
2022-10-19T02:28:01.783Z,10.9
2022-10-19T02:29:00.522Z,10.9
2022-10-19T02:30:00.430Z,10.9
2022-10-19T02:31:00.802Z,10.9
2022-10-19T02:32:01.071Z,10.9
2022-10-19T02:33:00.377Z,10.9
2022-10-19T02:34:00.518Z,10.9
2022-10-19T02:35:00.939Z,10.9
2022-10-19T02:36:00.262Z,10.9
2022-10-19T02:37:00.299Z,10.9
2022-10-19T02:38:01.567Z,10.9
2022-10-19T02:39:00.632Z,10.9
2022-10-19T02:40:00.456Z,10.9
2022-10-19T02:41:07.465Z,11.0
2022-10-19T02:42:09.088Z,11.0
2022-10-19T02:43:04.614Z,11.0
2022-10-19T02:44:04.630Z,10.9
2022-10-19T02:45:08.776Z,10.9
2022-10-19T02:46:06.247Z,11.0
2022-10-19T02:47:05.823Z,11.0
2022-10-19T02:48:04.670Z,11.0
2022-10-19T02:49:02.736Z,11.0
2022-10-19T02:50:03.371Z,11.0
2022-10-19T02:51:00.235Z,11.0
2022-10-19T02:52:04.058Z,11.0
2022-10-19T02:53:00.398Z,11.0
2022-10-19T02:54:04.130Z,11.0
2022-10-19T02:55:00.364Z,11.0
2022-10-19T02:56:00.219Z,11.0
2022-10-19T02:57:01.463Z,11.0
2022-10-19T02:58:00.417Z,11.0
2022-10-19T02:59:01.289Z,11.0
2022-10-19T03:00:00.475Z,11.0
2022-10-19T03:01:00.307Z,11.0
2022-10-19T03:02:00.236Z,11.0
2022-10-19T03:03:00.301Z,11.0
2022-10-19T03:04:00.212Z,11.0
2022-10-19T03:05:00.517Z,11.0
2022-10-19T03:06:00.208Z,11.0
2022-10-19T03:07:00.332Z,11.0
2022-10-19T03:08:00.221Z,11.0
2022-10-19T03:09:00.271Z,11.0
2022-10-19T03:10:00.424Z,11.0
2022-10-19T03:11:00.237Z,11.0
2022-10-19T03:12:00.214Z,11.0
2022-10-19T03:13:00.239Z,11.0
2022-10-19T03:14:00.243Z,11.0
2022-10-19T03:15:00.225Z,10.9
2022-10-19T03:16:08.565Z,10.9
2022-10-19T03:17:00.415Z,10.9
2022-10-19T03:18:00.212Z,10.9
2022-10-19T03:19:00.237Z,10.9
2022-10-19T03:20:00.257Z,10.8
2022-10-19T03:21:00.907Z,10.8
2022-10-19T03:22:00.337Z,10.8
2022-10-19T03:23:00.217Z,10.8
2022-10-19T03:24:00.276Z,10.8
2022-10-19T03:25:00.230Z,10.7
2022-10-19T03:26:00.507Z,10.7
2022-10-19T03:27:00.392Z,10.7
2022-10-19T03:28:00.431Z,10.7
2022-10-19T03:29:00.295Z,10.7
2022-10-19T03:30:00.270Z,10.7
2022-10-19T03:31:00.220Z,10.7
2022-10-19T03:32:00.209Z,10.7
2022-10-19T03:33:00.230Z,10.6
2022-10-19T03:34:00.251Z,10.7
2022-10-19T03:35:00.228Z,10.7
2022-10-19T03:36:11.982Z,10.6
2022-10-19T03:37:00.211Z,10.6
2022-10-19T03:38:00.213Z,10.6
2022-10-19T03:39:03.413Z,10.6
2022-10-19T03:40:00.227Z,10.6
2022-10-19T03:41:00.211Z,10.6
2022-10-19T03:42:00.358Z,10.6
2022-10-19T03:43:00.212Z,10.6
2022-10-19T03:45:00.243Z,10.5
2022-10-19T03:46:00.542Z,10.5
2022-10-19T03:47:00.226Z,10.5
2022-10-19T03:48:00.253Z,10.4
2022-10-19T03:49:00.883Z,10.4
2022-10-19T03:50:00.238Z,10.4
2022-10-19T03:51:04.601Z,10.4
2022-10-19T03:52:00.209Z,10.3
2022-10-19T03:53:00.354Z,10.3
2022-10-19T03:54:03.625Z,10.3
2022-10-19T03:55:00.346Z,10.3
2022-10-19T03:56:05.501Z,10.3
2022-10-19T03:57:00.279Z,10.3
2022-10-19T03:58:00.224Z,10.3
2022-10-19T03:59:01.649Z,10.3
2022-10-19T04:00:00.234Z,10.3
2022-10-19T04:01:01.103Z,10.2
2022-10-19T04:02:00.354Z,10.2
2022-10-19T04:03:00.220Z,10.2
2022-10-19T04:04:03.234Z,10.2
2022-10-19T04:05:00.418Z,10.2
2022-10-19T04:06:02.893Z,10.2
2022-10-19T04:07:00.261Z,10.1
2022-10-19T04:08:00.214Z,10.2
2022-10-19T04:09:01.274Z,10.2
2022-10-19T04:10:00.253Z,10.2
2022-10-19T04:11:01.944Z,10.2
2022-10-19T04:12:00.217Z,10.2
2022-10-19T04:13:00.221Z,10.2
2022-10-19T04:14:00.776Z,10.2
2022-10-19T04:15:00.247Z,10.2
2022-10-19T04:16:00.632Z,10.2
2022-10-19T04:17:01.068Z,10.2
2022-10-19T04:18:00.218Z,10.2
2022-10-19T04:19:00.411Z,10.1
2022-10-19T04:20:00.220Z,10.2
2022-10-19T04:21:03.691Z,10.2
2022-10-19T04:22:00.220Z,10.2
2022-10-19T04:23:00.212Z,10.2
2022-10-19T04:24:05.121Z,10.2
2022-10-19T04:25:00.256Z,10.2
2022-10-19T04:26:03.964Z,10.2
2022-10-19T04:27:00.581Z,10.2
2022-10-19T04:28:00.264Z,10.2
2022-10-19T04:29:00.880Z,10.2
2022-10-19T04:30:00.224Z,10.2
2022-10-19T04:31:03.170Z,10.2
2022-10-19T04:32:00.233Z,10.2
2022-10-19T04:33:00.239Z,10.2
2022-10-19T04:34:00.328Z,10.2
2022-10-19T04:35:00.229Z,10.2
2022-10-19T04:36:02.536Z,10.2
2022-10-19T04:37:00.223Z,10.2
2022-10-19T04:38:00.256Z,10.2
2022-10-19T04:39:00.380Z,10.2
2022-10-19T04:40:00.234Z,10.2
2022-10-19T04:41:00.896Z,10.2
2022-10-19T04:42:00.208Z,10.2
2022-10-19T04:43:00.234Z,10.2
2022-10-19T04:44:03.298Z,10.2
2022-10-19T04:45:00.284Z,10.2
2022-10-19T04:46:03.919Z,10.2
2022-10-19T04:47:00.228Z,10.2
2022-10-19T04:48:00.213Z,10.1
2022-10-19T04:49:00.427Z,10.1
2022-10-19T04:50:00.241Z,10.1
2022-10-19T04:51:00.861Z,10.1
2022-10-19T04:52:00.226Z,10.1
2022-10-19T04:53:00.240Z,10.1
2022-10-19T04:54:02.109Z,10.0
2022-10-19T04:55:00.687Z,10.0
2022-10-19T04:56:04.122Z,10.0
2022-10-19T04:57:00.237Z,10.0
2022-10-19T04:58:00.212Z,10.0
2022-10-19T04:59:00.379Z,10.0
2022-10-19T05:00:00.270Z,9.9
2022-10-19T05:01:11.809Z,9.9
2022-10-19T05:02:00.250Z,9.9
2022-10-19T05:03:00.231Z,9.9
2022-10-19T05:04:01.475Z,9.9
2022-10-19T05:05:00.376Z,9.9
2022-10-19T05:06:00.462Z,9.9
2022-10-19T05:07:00.219Z,9.9
2022-10-19T05:08:00.571Z,9.8
2022-10-19T05:09:00.265Z,9.8
2022-10-19T05:10:00.510Z,9.8
2022-10-19T05:11:01.637Z,9.8
2022-10-19T05:12:00.218Z,9.8
2022-10-19T05:13:00.297Z,9.8
2022-10-19T05:14:00.224Z,9.8
2022-10-19T05:15:00.770Z,9.8
2022-10-19T05:16:03.220Z,9.8
2022-10-19T05:17:00.273Z,9.8
2022-10-19T05:18:00.223Z,9.8
2022-10-19T05:19:00.260Z,9.8
2022-10-19T05:20:00.311Z,9.8
2022-10-19T05:21:11.216Z,9.8
2022-10-19T05:22:00.296Z,9.8
2022-10-19T05:23:04.679Z,9.8
2022-10-19T05:24:00.267Z,9.8
2022-10-19T05:25:00.252Z,9.8
2022-10-19T05:26:03.614Z,9.8
2022-10-19T05:27:00.345Z,9.8
2022-10-19T05:28:00.236Z,9.8
2022-10-19T05:29:00.504Z,9.8
2022-10-19T05:30:00.233Z,9.8
2022-10-19T05:31:05.848Z,9.8
2022-10-19T05:32:00.271Z,9.8
2022-10-19T05:33:00.253Z,9.8
2022-10-19T05:34:00.747Z,9.8
2022-10-19T05:35:00.546Z,9.8
2022-10-19T05:36:09.700Z,9.8
2022-10-19T05:37:00.246Z,9.8
2022-10-19T05:38:00.210Z,9.8
2022-10-19T05:39:02.616Z,9.8
2022-10-19T05:40:00.309Z,9.8
2022-10-19T05:41:00.216Z,9.8
2022-10-19T05:42:00.231Z,9.8
2022-10-19T05:43:00.219Z,9.9
2022-10-19T05:44:01.029Z,9.9
2022-10-19T05:45:00.326Z,10.0
2022-10-19T05:46:02.338Z,10.0
2022-10-19T05:47:00.811Z,10.1
2022-10-19T05:48:00.251Z,10.1
2022-10-19T05:49:00.352Z,10.1
2022-10-19T05:50:00.246Z,10.1
2022-10-19T05:51:01.278Z,10.1
2022-10-19T05:52:00.293Z,10.1
2022-10-19T05:53:00.286Z,10.1
2022-10-19T05:54:00.210Z,10.1
2022-10-19T05:55:00.271Z,10.2
2022-10-19T05:56:00.514Z,10.1
2022-10-19T05:57:00.300Z,10.1
2022-10-19T05:58:00.216Z,10.1
2022-10-19T05:59:03.334Z,10.1
2022-10-19T06:00:00.277Z,10.1
2022-10-19T06:01:01.236Z,10.1
2022-10-19T06:02:00.279Z,10.1
2022-10-19T06:03:00.245Z,10.1
2022-10-19T06:04:01.670Z,10.1
2022-10-19T06:05:00.317Z,10.1
2022-10-19T06:06:03.108Z,10.1
2022-10-19T06:07:00.226Z,10.1
2022-10-19T06:08:00.208Z,10.1
2022-10-19T06:09:00.294Z,10.1
2022-10-19T06:10:00.269Z,10.1
2022-10-19T06:11:10.838Z,10.1
2022-10-19T06:12:01.380Z,10.1
2022-10-19T06:13:00.250Z,10.1
2022-10-19T06:14:02.305Z,10.1
2022-10-19T06:15:00.269Z,10.1
2022-10-19T06:16:00.347Z,10.1
2022-10-19T06:17:00.235Z,10.1
2022-10-19T06:18:00.224Z,10.1
2022-10-19T06:19:00.242Z,10.1
2022-10-19T06:20:00.292Z,10.1
2022-10-19T06:21:02.252Z,10.1
2022-10-19T06:22:00.210Z,10.1
2022-10-19T06:23:00.515Z,10.1
2022-10-19T06:24:03.285Z,10.1
2022-10-19T06:25:00.241Z,10.1
2022-10-19T06:26:03.710Z,10.1
2022-10-19T06:27:00.216Z,10.1
2022-10-19T06:28:00.605Z,10.1
2022-10-19T06:29:00.914Z,10.1
2022-10-19T06:30:00.239Z,10.2
2022-10-19T06:31:00.423Z,10.2
2022-10-19T06:32:00.250Z,10.2
2022-10-19T06:33:00.427Z,10.2
2022-10-19T06:34:00.551Z,10.2
2022-10-19T06:35:00.296Z,10.1
2022-10-19T06:36:11.347Z,10.1
2022-10-19T06:37:00.217Z,10.2
2022-10-19T06:38:00.329Z,10.2
2022-10-19T06:39:01.021Z,10.2
2022-10-19T06:40:04.743Z,10.2
2022-10-19T06:41:01.019Z,10.2
2022-10-19T06:42:00.208Z,10.2
2022-10-19T06:43:00.298Z,10.2
2022-10-19T06:44:00.261Z,10.2
2022-10-19T06:45:00.241Z,10.2
2022-10-19T06:46:05.431Z,10.2
2022-10-19T06:47:00.236Z,10.3
2022-10-19T06:48:02.334Z,10.3
2022-10-19T06:49:01.251Z,10.3
2022-10-19T06:50:00.509Z,10.3
2022-10-19T06:51:06.198Z,10.3
2022-10-19T06:52:00.837Z,10.3
2022-10-19T06:53:00.246Z,10.3
2022-10-19T06:54:00.278Z,10.3
2022-10-19T06:55:00.899Z,10.3
2022-10-19T06:56:02.205Z,10.3
2022-10-19T06:57:00.238Z,10.2
2022-10-19T06:58:00.289Z,10.2
2022-10-19T06:59:00.255Z,10.2
2022-10-19T07:00:00.418Z,10.3
2022-10-19T07:01:00.454Z,10.3
2022-10-19T07:02:00.216Z,10.3
2022-10-19T07:03:00.210Z,10.3
2022-10-19T07:04:00.252Z,10.3
2022-10-19T07:05:04.574Z,10.4
2022-10-19T07:06:03.115Z,10.4
2022-10-19T07:07:00.231Z,10.4
2022-10-19T07:08:00.260Z,10.4
2022-10-19T07:09:00.220Z,10.5
2022-10-19T07:10:00.270Z,10.4
2022-10-19T07:11:03.600Z,10.5
2022-10-19T07:12:00.215Z,10.5
2022-10-19T07:13:00.277Z,10.5
2022-10-19T07:14:00.213Z,10.6
2022-10-19T07:15:00.232Z,10.6
2022-10-19T07:16:02.286Z,10.6
2022-10-19T07:17:00.229Z,10.6
2022-10-19T07:18:00.220Z,10.6
2022-10-19T07:19:00.216Z,10.6
2022-10-19T07:20:00.216Z,10.6
2022-10-19T07:21:03.354Z,10.7
2022-10-19T07:22:00.301Z,10.7
2022-10-19T07:23:00.237Z,10.7
2022-10-19T07:24:00.235Z,10.7
2022-10-19T07:25:00.266Z,10.7
2022-10-19T07:26:11.014Z,10.7
2022-10-19T07:27:00.229Z,10.7
2022-10-19T07:28:00.252Z,10.8
2022-10-19T07:29:00.882Z,10.8
2022-10-19T07:30:00.228Z,10.8
2022-10-19T07:31:04.767Z,10.8
2022-10-19T07:32:00.213Z,10.8
2022-10-19T07:33:00.223Z,10.8
2022-10-19T07:34:02.161Z,10.9
2022-10-19T07:35:00.238Z,10.9
2022-10-19T07:36:02.322Z,10.9
2022-10-19T07:37:00.368Z,10.9
2022-10-19T07:38:00.214Z,10.9
2022-10-19T07:39:00.809Z,10.9
2022-10-19T07:40:00.224Z,11.0
2022-10-19T07:41:04.203Z,11.0
2022-10-19T07:42:00.213Z,11.0
2022-10-19T07:43:00.349Z,11.1
2022-10-19T07:44:00.981Z,11.1
2022-10-19T07:45:00.338Z,11.1
2022-10-19T07:46:02.684Z,11.1
2022-10-19T07:47:00.226Z,11.1
2022-10-19T07:48:00.221Z,11.1
2022-10-19T07:49:00.660Z,11.1
2022-10-19T07:50:00.253Z,11.2
2022-10-19T07:51:02.647Z,11.2
2022-10-19T07:52:00.214Z,11.3
2022-10-19T07:53:00.228Z,11.3
2022-10-19T07:54:00.222Z,11.3
2022-10-19T07:55:00.249Z,11.3
2022-10-19T07:56:02.190Z,11.4
2022-10-19T07:57:00.214Z,11.4
2022-10-19T07:58:00.214Z,11.4
2022-10-19T07:59:00.414Z,11.4
2022-10-19T08:00:00.229Z,11.4
2022-10-19T08:01:01.521Z,11.3
2022-10-19T08:02:00.305Z,11.4
2022-10-19T08:05:02.999Z,11.4
2022-10-19T08:06:01.553Z,11.3
2022-10-19T08:07:00.221Z,11.3
2022-10-19T08:08:00.291Z,11.2
2022-10-19T08:09:00.349Z,11.2
2022-10-19T08:10:00.319Z,11.1
2022-10-19T08:11:13.849Z,11.2
2022-10-19T08:12:00.341Z,11.2
2022-10-19T08:13:00.217Z,11.2
2022-10-19T08:14:01.063Z,11.2
2022-10-19T08:15:00.240Z,11.2
2022-10-19T08:16:00.452Z,11.2
2022-10-19T08:17:00.708Z,11.3
2022-10-19T08:18:00.264Z,11.3
2022-10-19T08:19:03.528Z,11.3
2022-10-19T08:20:00.273Z,11.4
2022-10-19T08:21:01.110Z,11.4
2022-10-19T08:22:00.212Z,11.4
2022-10-19T08:23:00.210Z,11.4
2022-10-19T08:24:00.280Z,11.4
2022-10-19T08:25:00.436Z,11.4
2022-10-19T08:26:00.218Z,11.4
2022-10-19T08:27:00.207Z,11.5
2022-10-19T08:28:00.225Z,11.5
2022-10-19T08:29:01.244Z,11.5
2022-10-19T08:30:00.233Z,11.5
2022-10-19T08:31:07.958Z,11.5
2022-10-19T08:32:00.314Z,11.5
2022-10-19T08:33:01.535Z,11.5
2022-10-19T08:34:00.710Z,11.6
2022-10-19T08:35:00.250Z,11.6
2022-10-19T08:36:03.922Z,11.5
2022-10-19T08:37:06.694Z,11.5
2022-10-19T08:38:02.784Z,11.5
2022-10-19T08:39:02.763Z,11.5
2022-10-19T08:40:00.297Z,11.5
2022-10-19T08:41:20.119Z,11.6
2022-10-19T08:42:01.921Z,11.6
2022-10-19T08:43:05.423Z,11.7
2022-10-19T08:44:11.187Z,11.8
2022-10-19T08:45:20.127Z,11.7
2022-10-19T08:46:03.531Z,11.7
2022-10-19T08:47:06.128Z,11.7
2022-10-19T08:48:20.131Z,11.7
2022-10-19T08:49:00.802Z,11.7
2022-10-19T08:50:00.679Z,11.7
2022-10-19T08:51:00.308Z,11.7
2022-10-19T08:52:10.531Z,11.6
2022-10-19T08:53:03.998Z,11.6
2022-10-19T08:54:05.673Z,11.7
2022-10-19T08:55:07.234Z,11.8
2022-10-19T08:56:26.937Z,11.9
2022-10-19T08:57:20.148Z,11.9
2022-10-19T08:58:15.079Z,11.9
2022-10-19T08:59:07.480Z,11.8
2022-10-19T09:00:10.163Z,11.8
2022-10-19T09:01:13.983Z,11.8
2022-10-19T09:02:09.584Z,11.7
2022-10-19T09:03:11.217Z,11.8
2022-10-19T09:04:06.554Z,11.7
2022-10-19T09:05:08.882Z,11.8
2022-10-19T09:06:16.854Z,11.6
2022-10-19T09:07:13.420Z,11.6
2022-10-19T09:08:00.396Z,11.6
2022-10-19T09:09:00.462Z,11.7
2022-10-19T09:10:07.965Z,11.8
2022-10-19T09:11:00.292Z,11.8
2022-10-19T09:12:04.321Z,11.9
2022-10-19T09:13:08.874Z,12.0
2022-10-19T09:14:15.176Z,11.9
2022-10-19T09:15:06.192Z,12.0
2022-10-19T09:16:01.674Z,12.0
2022-10-19T09:17:02.408Z,12.1
2022-10-19T09:18:01.124Z,12.1
2022-10-19T09:19:00.663Z,12.1
2022-10-19T09:20:13.571Z,12.2
2022-10-19T09:21:04.898Z,12.2
2022-10-19T09:22:06.602Z,12.3
2022-10-19T09:23:03.265Z,12.3
2022-10-19T09:24:06.365Z,12.3
2022-10-19T09:25:07.354Z,12.2
2022-10-19T09:26:00.462Z,12.2
2022-10-19T09:27:00.875Z,12.3
2022-10-19T09:28:16.872Z,12.2
2022-10-19T09:29:07.069Z,12.2
2022-10-19T09:30:02.593Z,12.3
2022-10-19T09:31:01.243Z,12.3
2022-10-19T09:32:03.327Z,12.2
2022-10-19T09:33:01.480Z,12.3
2022-10-19T09:34:04.539Z,12.3
2022-10-19T09:35:04.225Z,12.2
2022-10-19T09:36:03.949Z,12.3
2022-10-19T09:37:00.660Z,12.3
2022-10-19T09:38:00.587Z,12.3
2022-10-19T09:39:00.231Z,12.4
2022-10-19T09:40:00.226Z,12.4
2022-10-19T09:41:19.155Z,12.5
2022-10-19T09:42:17.535Z,12.5
2022-10-19T09:43:00.554Z,12.5
2022-10-19T09:44:00.829Z,12.5
2022-10-19T09:45:11.699Z,12.5
2022-10-19T09:46:18.529Z,12.5
2022-10-19T09:47:02.273Z,12.5
2022-10-19T09:48:08.623Z,12.5
2022-10-19T09:49:02.943Z,12.4
2022-10-19T09:50:18.732Z,12.4
2022-10-19T09:51:09.269Z,12.4
2022-10-19T09:52:00.219Z,12.5
2022-10-19T09:53:04.695Z,12.5
2022-10-19T09:54:00.224Z,12.6
2022-10-19T09:55:05.011Z,12.6
2022-10-19T09:56:06.395Z,12.6
2022-10-19T09:57:01.233Z,12.6
2022-10-19T09:58:11.985Z,12.6
2022-10-19T09:59:00.242Z,12.5
2022-10-19T10:00:00.241Z,12.5
2022-10-19T10:01:02.141Z,12.4
2022-10-19T10:02:15.634Z,12.2
2022-10-19T10:03:00.218Z,12.2
2022-10-19T10:04:06.724Z,12.2
2022-10-19T10:05:09.205Z,12.2
2022-10-19T10:06:04.970Z,12.1
2022-10-19T10:07:00.275Z,12.1
2022-10-19T10:08:00.662Z,12.1
2022-10-19T10:09:00.692Z,12.1
2022-10-19T10:10:00.409Z,12.1
2022-10-19T10:11:11.881Z,12.1
2022-10-19T10:12:00.469Z,12.1
2022-10-19T10:13:00.649Z,12.2
2022-10-19T10:14:13.095Z,12.2
2022-10-19T10:15:04.788Z,12.2
2022-10-19T10:16:03.766Z,12.3
2022-10-19T10:17:03.592Z,12.3
2022-10-19T10:18:00.386Z,12.3
2022-10-19T10:19:06.742Z,12.4
2022-10-19T10:20:00.237Z,12.4
2022-10-19T10:21:04.902Z,12.4
2022-10-19T10:22:02.711Z,12.3
2022-10-19T10:23:03.017Z,12.3
2022-10-19T10:24:02.331Z,12.4
2022-10-19T10:25:01.632Z,12.4
2022-10-19T10:26:01.154Z,12.4
2022-10-19T10:27:04.062Z,12.4
2022-10-19T10:28:03.203Z,12.3
2022-10-19T10:29:01.565Z,12.3
2022-10-19T10:30:06.684Z,12.3
2022-10-19T10:31:03.717Z,12.3
2022-10-19T10:32:10.174Z,12.3
2022-10-19T10:33:09.270Z,12.3
2022-10-19T10:34:07.480Z,12.3
2022-10-19T10:35:03.438Z,12.2
2022-10-19T10:36:04.537Z,12.2
2022-10-19T10:37:04.629Z,12.2
2022-10-19T10:38:16.197Z,12.2
2022-10-19T10:39:05.851Z,12.2
2022-10-19T10:40:03.717Z,12.3
2022-10-19T10:41:03.972Z,12.3
2022-10-19T10:42:07.518Z,12.3
2022-10-19T10:43:06.359Z,12.4
2022-10-19T10:44:05.264Z,12.4
2022-10-19T10:45:01.216Z,12.4
2022-10-19T10:46:06.526Z,12.5
2022-10-19T10:47:02.417Z,12.6
2022-10-19T10:48:13.449Z,12.7
2022-10-19T10:49:04.446Z,12.8
2022-10-19T10:50:03.902Z,12.8
2022-10-19T10:51:01.266Z,12.9
2022-10-19T10:52:04.887Z,12.9
2022-10-19T10:53:03.308Z,13.0
2022-10-19T10:54:20.130Z,12.8
2022-10-19T10:55:11.869Z,12.8
2022-10-19T10:56:00.871Z,12.9
2022-10-19T10:57:07.666Z,12.7
2022-10-19T10:58:17.175Z,12.7
2022-10-19T10:59:07.770Z,12.7
2022-10-19T11:00:03.054Z,12.6
2022-10-19T11:01:07.727Z,12.6
2022-10-19T11:02:12.167Z,12.6
2022-10-19T11:03:06.347Z,12.6
2022-10-19T11:04:05.176Z,12.6
2022-10-19T11:05:07.649Z,12.7
2022-10-19T11:06:00.348Z,12.7
2022-10-19T11:07:09.387Z,12.7
2022-10-19T11:08:11.396Z,12.7
2022-10-19T11:09:07.523Z,12.7
2022-10-19T11:10:15.553Z,12.7
2022-10-19T11:11:10.207Z,12.7
2022-10-19T11:12:03.965Z,12.6
2022-10-19T11:13:13.418Z,12.6
2022-10-19T11:14:08.714Z,12.6
2022-10-19T11:15:20.227Z,12.6
2022-10-19T11:16:10.143Z,12.6
2022-10-19T11:17:05.827Z,12.5
2022-10-19T11:18:20.126Z,12.4
2022-10-19T11:19:11.172Z,12.4
2022-10-19T11:20:00.238Z,12.4
2022-10-19T11:21:07.697Z,12.4
2022-10-19T11:22:10.180Z,12.3
2022-10-19T11:23:07.501Z,12.3
2022-10-19T11:24:12.934Z,12.3
2022-10-19T11:25:20.163Z,12.4
2022-10-19T11:26:15.302Z,12.4
2022-10-19T11:27:11.192Z,12.4
2022-10-19T11:28:09.015Z,12.4
2022-10-19T11:29:19.211Z,12.5
2022-10-19T11:30:08.361Z,12.5
2022-10-19T11:31:11.845Z,12.5
2022-10-19T11:32:00.405Z,12.5
2022-10-19T11:33:01.217Z,12.5
2022-10-19T11:34:23.638Z,12.5
2022-10-19T11:35:17.870Z,12.5
2022-10-19T11:36:09.661Z,12.5
2022-10-19T11:37:17.253Z,12.4
2022-10-19T11:38:20.607Z,12.3
2022-10-19T11:39:18.756Z,12.3
2022-10-19T11:40:22.144Z,12.3
2022-10-19T11:41:17.920Z,12.3
2022-10-19T11:42:13.954Z,12.2
2022-10-19T11:43:13.428Z,12.2
2022-10-19T11:44:20.120Z,12.2
2022-10-19T11:45:14.622Z,12.2
2022-10-19T11:46:19.102Z,12.1
2022-10-19T11:47:20.146Z,12.1
2022-10-19T11:48:16.738Z,12.1
2022-10-19T11:49:11.126Z,12.1
2022-10-19T11:50:12.848Z,12.1
2022-10-19T11:52:11.007Z,12.0
2022-10-19T11:53:15.008Z,12.1
2022-10-19T11:54:20.129Z,12.1
2022-10-19T11:55:11.189Z,12.1
2022-10-19T11:56:09.325Z,12.1
2022-10-19T11:57:11.192Z,12.1
2022-10-19T11:58:20.118Z,12.1
2022-10-19T11:59:01.300Z,12.1
2022-10-19T12:00:15.128Z,12.1
2022-10-19T12:01:15.081Z,12.1
2022-10-19T12:02:10.192Z,12.2
2022-10-19T12:03:20.130Z,12.3
2022-10-19T12:04:03.498Z,12.3
2022-10-19T12:05:09.018Z,12.3
2022-10-19T12:06:20.126Z,12.3
2022-10-19T12:07:14.861Z,12.3
2022-10-19T12:08:13.513Z,12.3
2022-10-19T12:09:11.224Z,12.3
2022-10-19T12:10:20.130Z,12.2
2022-10-19T12:11:11.198Z,12.2
2022-10-19T12:12:15.598Z,12.3
2022-10-19T12:13:03.469Z,12.3
2022-10-19T12:14:04.016Z,12.2
2022-10-19T12:15:11.849Z,12.2
2022-10-19T12:16:02.714Z,12.2
2022-10-19T12:18:07.665Z,12.2
2022-10-19T12:19:03.328Z,12.2
2022-10-19T12:20:20.159Z,12.1
2022-10-19T12:21:13.298Z,12.1
2022-10-19T12:22:05.015Z,12.1
2022-10-19T12:23:05.991Z,12.1
2022-10-19T12:24:05.109Z,12.0
2022-10-19T12:25:00.835Z,12.0
2022-10-19T12:26:03.457Z,12.0
2022-10-19T12:27:01.041Z,12.0
2022-10-19T12:28:01.904Z,12.0
2022-10-19T12:29:05.491Z,12.0
2022-10-19T12:30:07.110Z,11.9
2022-10-19T12:31:01.667Z,12.0
2022-10-19T12:32:02.383Z,11.9
2022-10-19T12:33:15.745Z,11.9
2022-10-19T12:34:17.647Z,11.9
2022-10-19T12:35:16.541Z,11.9
2022-10-19T12:36:14.900Z,11.9
2022-10-19T12:37:20.144Z,11.8
2022-10-19T12:38:10.325Z,11.8
2022-10-19T12:39:07.625Z,11.8
2022-10-19T12:40:07.272Z,11.9
2022-10-19T12:41:03.507Z,11.9
2022-10-19T12:42:10.166Z,11.9
2022-10-19T12:43:06.872Z,11.9
2022-10-19T12:44:18.930Z,11.9
2022-10-19T12:45:17.170Z,11.9
2022-10-19T12:46:17.511Z,11.9
2022-10-19T12:47:10.092Z,11.9
2022-10-19T12:48:07.669Z,11.9
2022-10-19T12:49:20.146Z,11.9
2022-10-19T12:50:00.770Z,11.9
2022-10-19T12:51:03.124Z,11.9
2022-10-19T12:52:01.092Z,11.9
2022-10-19T12:53:00.275Z,11.9
2022-10-19T12:54:08.343Z,11.9
2022-10-19T12:55:20.120Z,11.9
2022-10-19T12:56:06.032Z,11.9
2022-10-19T12:57:02.164Z,11.9
2022-10-19T12:58:05.145Z,11.9
2022-10-19T12:59:00.733Z,11.9
2022-10-19T13:00:14.762Z,11.9
2022-10-19T13:01:02.762Z,11.8
2022-10-19T13:02:04.032Z,11.9
2022-10-19T13:03:12.523Z,11.9
2022-10-19T13:04:10.185Z,11.9
2022-10-19T13:05:00.755Z,11.9
2022-10-19T13:06:06.987Z,11.8
2022-10-19T13:07:02.609Z,11.8
2022-10-19T13:08:03.894Z,11.8
2022-10-19T13:09:17.987Z,11.8
2022-10-19T13:10:04.452Z,11.8
2022-10-19T13:11:03.505Z,11.8
2022-10-19T13:12:16.188Z,11.7
2022-10-19T13:13:00.758Z,11.7
2022-10-19T13:14:15.183Z,11.6
2022-10-19T13:15:02.936Z,11.7
2022-10-19T13:16:00.354Z,11.6
2022-10-19T13:17:01.700Z,11.6
2022-10-19T13:18:02.311Z,11.7
2022-10-19T13:19:12.389Z,11.7
2022-10-19T13:20:13.511Z,11.7
2022-10-19T13:21:02.494Z,11.7
2022-10-19T13:22:00.218Z,11.7
2022-10-19T13:23:00.210Z,11.7
2022-10-19T13:24:20.131Z,11.7